createdAt,value
2023-04-05T00:00:57.248Z,52.20
2023-04-05T00:03:25.632Z,52.67
2023-04-05T00:05:54.774Z,53.21
2023-04-05T00:08:26.685Z,52.83
2023-04-05T00:10:55.946Z,53.30
2023-04-05T00:13:24.056Z,52.92
2023-04-05T00:15:51.791Z,53.71
2023-04-05T00:18:25.519Z,54.28
2023-04-05T00:20:54.283Z,54.12
2023-04-05T00:23:22.966Z,53.77
2023-04-05T00:25:50.723Z,54.01
2023-04-05T00:28:20.116Z,53.70
2023-04-05T00:30:47.907Z,54.07
2023-04-05T00:33:15.664Z,54.79
2023-04-05T00:35:43.498Z,54.67
2023-04-05T00:38:11.221Z,54.96
2023-04-05T00:40:39.159Z,55.47
2023-04-05T00:43:07.365Z,55.47
2023-04-05T00:45:36.801Z,54.94
2023-04-05T00:48:05.705Z,55.44
2023-04-05T00:50:34.381Z,55.26
2023-04-05T00:53:02.205Z,54.93
2023-04-05T00:55:30.196Z,54.84
2023-04-05T00:57:57.950Z,55.80
2023-04-05T01:00:26.109Z,55.83
2023-04-05T01:03:01.956Z,55.41
2023-04-05T01:05:38.048Z,55.40
2023-04-05T01:08:16.213Z,56.00
2023-04-05T01:10:49.043Z,56.68
2023-04-05T01:13:17.514Z,57.08
2023-04-05T01:15:45.301Z,57.38
2023-04-05T01:18:15.125Z,57.37
2023-04-05T01:20:53.716Z,57.34
2023-04-05T01:23:37.832Z,57.03
2023-04-05T01:26:32.422Z,57.39
2023-04-05T01:29:42.941Z,57.21
2023-04-05T01:32:23.162Z,57.03
2023-04-05T01:34:56.515Z,57.82
2023-04-05T01:37:28.531Z,57.70
2023-04-05T01:39:57.023Z,57.71
2023-04-05T01:42:26.265Z,58.54
2023-04-05T01:44:54.703Z,58.50
2023-04-05T01:47:23.934Z,58.75
2023-04-05T01:49:51.679Z,59.25
2023-04-05T01:52:19.437Z,59.43
2023-04-05T01:54:47.138Z,59.40
2023-04-05T01:57:14.947Z,59.38
2023-04-05T01:59:42.735Z,58.91
2023-04-05T02:02:10.497Z,59.30
2023-04-05T02:04:39.849Z,59.33
2023-04-05T02:07:07.578Z,58.71
2023-04-05T02:09:35.468Z,58.22
2023-04-05T02:12:03.198Z,57.76
2023-04-05T02:14:31.226Z,57.99
2023-04-05T02:16:58.943Z,58.31
2023-04-05T02:19:26.786Z,58.09
2023-04-05T02:21:55.927Z,59.13
2023-04-05T02:24:23.817Z,59.29
2023-04-05T02:26:51.660Z,59.80
2023-04-05T02:29:19.481Z,60.12
2023-04-05T02:31:47.867Z,61.08
2023-04-05T02:34:16.105Z,60.81
2023-04-05T02:36:44.145Z,60.67
2023-04-05T02:39:14.389Z,61.06
2023-04-05T02:41:42.507Z,60.59
2023-04-05T02:44:10.330Z,60.33
2023-04-05T02:46:38.337Z,60.38
2023-04-05T02:49:06.936Z,60.81
2023-04-05T02:51:35.001Z,61.00
2023-04-05T02:54:03.719Z,61.09
2023-04-05T02:56:32.799Z,61.54
2023-04-05T02:59:00.650Z,61.64
2023-04-05T03:01:28.449Z,62.03
2023-04-05T03:03:56.300Z,61.61
2023-04-05T03:06:24.097Z,62.15
2023-04-05T03:08:52.381Z,62.15
2023-04-05T03:11:20.889Z,62.52
2023-04-05T03:13:49.991Z,63.01
2023-04-05T03:16:20.077Z,63.54
2023-04-05T03:18:48.002Z,63.62
2023-04-05T03:21:18.117Z,63.55
2023-04-05T03:23:46.838Z,63.25
2023-04-05T03:26:15.223Z,62.83
2023-04-05T03:28:45.254Z,62.17
2023-04-05T03:31:15.042Z,62.25
2023-04-05T03:33:42.880Z,62.73
2023-04-05T03:36:12.864Z,62.40
2023-04-05T03:38:42.549Z,62.88
2023-04-05T03:41:10.498Z,62.82
2023-04-05T03:43:38.373Z,63.35
2023-04-05T03:46:06.501Z,63.23
2023-04-05T03:48:35.729Z,63.58
2023-04-05T03:51:03.576Z,63.55
2023-04-05T03:53:31.306Z,63.72
2023-04-05T03:55:59.184Z,63.78
2023-04-05T03:58:27.080Z,63.74
2023-04-05T04:00:56.170Z,63.09
2023-04-05T04:03:26.042Z,64.03
2023-04-05T04:05:55.639Z,63.81
2023-04-05T04:08:23.508Z,63.75
2023-04-05T04:10:51.343Z,63.30
2023-04-05T04:13:19.572Z,63.57
2023-04-05T04:15:47.845Z,64.32
2023-04-05T04:18:15.644Z,63.84
2023-04-05T04:20:43.650Z,64.24
2023-04-05T04:23:14.523Z,63.94
2023-04-05T04:25:46.142Z,64.27
2023-04-05T04:28:17.871Z,64.39
2023-04-05T04:30:46.731Z,63.83
2023-04-05T04:33:14.725Z,64.37
2023-04-05T04:35:42.808Z,64.73
2023-04-05T04:38:20.505Z,64.90
2023-04-05T04:40:50.786Z,64.28
2023-04-05T04:43:19.046Z,64.39
2023-04-05T04:45:49.361Z,64.91
2023-04-05T04:48:18.529Z,64.59
2023-04-05T04:50:46.633Z,64.38
2023-04-05T04:53:17.473Z,64.30
2023-04-05T04:55:45.566Z,65.09
2023-04-05T04:58:14.216Z,65.36
2023-04-05T05:00:44.628Z,65.10
2023-04-05T05:03:13.460Z,65.30
2023-04-05T05:05:44.604Z,65.86
2023-04-05T05:08:12.933Z,65.57
2023-04-05T05:10:42.405Z,65.53
2023-04-05T05:13:11.492Z,65.48
2023-04-05T05:15:40.951Z,65.33
2023-04-05T05:18:08.979Z,65.24
2023-04-05T05:20:37.501Z,65.46
2023-04-05T05:23:06.321Z,65.26
2023-04-05T05:25:34.004Z,65.01
2023-04-05T05:28:03.136Z,64.87
2023-04-05T05:30:31.110Z,64.63
2023-04-05T05:32:58.814Z,64.96
2023-04-05T05:35:27.815Z,65.04
2023-04-05T05:37:55.593Z,65.17
2023-04-05T05:40:23.338Z,65.46
2023-04-05T05:42:51.530Z,65.22
2023-04-05T05:45:20.757Z,64.96
2023-04-05T05:47:48.523Z,64.90
2023-04-05T05:50:17.169Z,64.95
2023-04-05T05:52:44.944Z,64.96
2023-04-05T05:55:12.590Z,64.47
2023-04-05T05:57:40.419Z,64.13
2023-04-05T06:00:10.722Z,64.51
2023-04-05T06:02:40.606Z,64.99
2023-04-05T06:05:09.055Z,65.10
2023-04-05T06:07:38.387Z,64.79
2023-04-05T06:10:06.691Z,64.58
2023-04-05T06:12:34.826Z,64.42
2023-04-05T06:15:03.103Z,64.16
2023-04-05T06:17:30.884Z,63.70
2023-04-05T06:20:00.143Z,63.32
2023-04-05T06:22:28.783Z,63.59
2023-04-05T06:24:56.673Z,63.21
2023-04-05T06:27:24.490Z,63.03
2023-04-05T06:29:52.637Z,62.67
2023-04-05T06:32:20.738Z,62.52
2023-04-05T06:34:49.065Z,62.71
2023-04-05T06:37:18.636Z,62.26
2023-04-05T06:39:46.411Z,62.27
2023-04-05T06:42:14.197Z,62.39
2023-04-05T06:44:41.910Z,62.20
2023-04-05T06:47:10.022Z,62.32
2023-04-05T06:49:37.962Z,62.32
2023-04-05T06:52:06.795Z,62.05
2023-04-05T06:54:38.436Z,62.08
2023-04-05T06:57:06.317Z,61.92
2023-04-05T06:59:34.228Z,61.75
2023-04-05T07:02:02.144Z,61.15
2023-04-05T07:04:33.353Z,61.53
2023-04-05T07:07:03.150Z,61.23
2023-04-05T07:09:32.684Z,60.78
2023-04-05T07:12:05.777Z,60.45
2023-04-05T07:14:34.443Z,60.78
2023-04-05T07:17:02.124Z,61.09
2023-04-05T07:19:29.990Z,59.75
2023-04-05T07:21:58.322Z,59.89
2023-04-05T07:24:26.110Z,59.61
2023-04-05T07:26:54.012Z,59.07
2023-04-05T07:29:23.111Z,58.46
2023-04-05T07:31:51.483Z,58.81
2023-04-05T07:34:19.207Z,57.80
2023-04-05T07:36:47.386Z,57.76
2023-04-05T07:39:15.884Z,57.04
2023-04-05T07:41:43.787Z,56.58
2023-04-05T07:44:11.752Z,56.36
2023-04-05T07:46:46.885Z,55.51
2023-04-05T07:49:16.249Z,54.63
2023-04-05T07:51:44.081Z,53.71
2023-04-05T07:54:11.827Z,53.50
2023-04-05T07:56:39.703Z,53.80
2023-04-05T07:59:07.889Z,52.32
2023-04-05T08:01:35.661Z,51.74
2023-04-05T08:04:04.827Z,51.63
2023-04-05T08:06:32.597Z,51.45
2023-04-05T08:09:00.495Z,51.18
2023-04-05T08:11:28.192Z,50.90
2023-04-05T08:13:55.957Z,50.58
2023-04-05T08:16:23.831Z,50.23
2023-04-05T08:18:51.890Z,49.63
2023-04-05T08:21:21.293Z,49.60
2023-04-05T08:23:49.992Z,49.74
2023-04-05T08:26:18.304Z,50.02
2023-04-05T08:28:46.193Z,48.97
2023-04-05T08:31:14.105Z,49.04
2023-04-05T08:33:41.857Z,49.61
2023-04-05T08:36:11.657Z,48.25
2023-04-05T08:38:40.751Z,47.94
2023-04-05T08:41:14.187Z,48.02
2023-04-05T08:43:48.721Z,48.51
2023-04-05T08:46:18.839Z,48.36
2023-04-05T08:48:46.580Z,48.48
2023-04-05T08:51:14.354Z,47.75
2023-04-05T08:53:43.764Z,47.60
2023-04-05T08:56:16.406Z,47.38
2023-04-05T08:58:49.553Z,47.65
2023-04-05T09:01:18.150Z,47.16
2023-04-05T09:03:48.227Z,46.60
2023-04-05T09:06:16.884Z,47.01
2023-04-05T09:08:46.743Z,46.57
2023-04-05T09:11:15.678Z,46.39
2023-04-05T09:13:43.389Z,46.57
2023-04-05T09:16:11.209Z,45.87
2023-04-05T09:18:38.991Z,45.82
2023-04-05T09:21:07.179Z,44.53
2023-04-05T09:23:35.746Z,44.37
2023-04-05T09:26:19.285Z,44.08
2023-04-05T09:28:47.154Z,43.55
2023-04-05T09:31:33.394Z,43.49
2023-04-05T09:34:03.242Z,43.26
2023-04-05T09:36:32.909Z,43.27
2023-04-05T09:39:08.271Z,43.54
2023-04-05T09:41:39.320Z,42.63
2023-04-05T09:44:07.205Z,43.12
2023-04-05T09:46:38.030Z,42.63
2023-04-05T09:49:09.492Z,41.96
2023-04-05T09:51:38.647Z,41.55
2023-04-05T09:54:08.705Z,41.82
2023-04-05T09:56:39.039Z,42.04
2023-04-05T09:59:10.780Z,41.94
2023-04-05T10:01:41.186Z,41.18
2023-04-05T10:04:09.961Z,41.49
2023-04-05T10:06:39.135Z,41.29
2023-04-05T10:09:08.076Z,41.76
2023-04-05T10:11:38.631Z,40.46
2023-04-05T10:14:08.388Z,39.29
2023-04-05T10:16:44.412Z,39.49
2023-04-05T10:19:21.431Z,39.14
2023-04-05T10:21:50.515Z,39.72
2023-04-05T10:24:32.954Z,39.77
2023-04-05T10:27:07.381Z,38.70
2023-04-05T10:29:43.446Z,39.12
2023-04-05T10:32:16.945Z,38.52
2023-04-05T10:34:52.267Z,38.58
2023-04-05T10:37:31.530Z,38.52
2023-04-05T10:40:04.213Z,37.88
2023-04-05T10:42:41.762Z,37.75
2023-04-05T10:45:15.245Z,38.84
2023-04-05T10:47:48.214Z,38.74
2023-04-05T10:50:21.338Z,38.38
2023-04-05T10:52:50.376Z,38.30
2023-04-05T10:55:18.745Z,37.16
2023-04-05T10:57:49.747Z,37.43
2023-04-05T11:00:19.625Z,36.27
2023-04-05T11:02:49.743Z,37.59
2023-04-05T11:05:31.971Z,36.83
2023-04-05T11:08:04.716Z,37.64
2023-04-05T11:10:35.242Z,35.73
2023-04-05T11:13:12.285Z,36.44
2023-04-05T11:15:40.322Z,36.35
2023-04-05T11:18:11.449Z,36.77
2023-04-05T11:20:47.671Z,36.08
2023-04-05T11:23:17.382Z,37.40
2023-04-05T11:25:51.778Z,37.66
2023-04-05T11:28:32.220Z,37.63
2023-04-05T11:31:14.041Z,38.00
2023-04-05T11:34:00.852Z,36.86
2023-04-05T11:36:39.184Z,36.51
2023-04-05T11:39:29.533Z,36.63
2023-04-05T11:42:05.099Z,36.08
2023-04-05T11:44:44.165Z,36.73
2023-04-05T11:47:13.090Z,37.20
2023-04-05T11:49:42.589Z,36.88
2023-04-05T11:52:15.946Z,36.65
2023-04-05T11:54:47.599Z,37.77
2023-04-05T11:57:20.170Z,37.15
2023-04-05T11:59:54.639Z,36.67
2023-04-05T12:02:24.060Z,36.20
2023-04-05T12:04:56.559Z,35.53
2023-04-05T12:07:27.987Z,35.88
2023-04-05T12:10:18.784Z,36.25
2023-04-05T12:12:48.854Z,36.36
2023-04-05T12:15:19.023Z,35.83
2023-04-05T12:17:49.784Z,36.50
2023-04-05T12:20:21.092Z,36.50
2023-04-05T12:22:51.284Z,35.77
2023-04-05T12:25:20.570Z,35.69
2023-04-05T12:27:48.752Z,35.67
2023-04-05T12:30:19.878Z,35.67
2023-04-05T12:32:49.286Z,35.64
2023-04-05T12:35:18.213Z,34.81
2023-04-05T12:37:46.942Z,35.37
2023-04-05T12:40:15.055Z,34.99
2023-04-05T12:42:43.083Z,35.34
2023-04-05T12:45:14.855Z,35.38
2023-04-05T12:47:51.833Z,35.44
2023-04-05T12:50:26.186Z,35.49
2023-04-05T12:52:55.580Z,35.25
2023-04-05T12:55:23.896Z,34.82
2023-04-05T12:57:53.630Z,34.57
2023-04-05T13:00:24.842Z,34.05
2023-04-05T13:02:55.532Z,34.62
2023-04-05T13:05:24.745Z,33.79
2023-04-05T13:07:52.802Z,33.46
2023-04-05T13:10:20.910Z,33.51
2023-04-05T13:12:49.090Z,33.02
2023-04-05T13:15:18.128Z,33.01
2023-04-05T13:17:50.000Z,33.16
2023-04-05T13:20:20.359Z,32.88
2023-04-05T13:22:48.579Z,32.56
2023-04-05T13:25:16.703Z,32.13
2023-04-05T13:27:44.849Z,32.11
2023-04-05T13:30:13.323Z,32.36
2023-04-05T13:32:41.468Z,32.41
2023-04-05T13:35:09.988Z,32.65
2023-04-05T13:37:42.443Z,32.97
2023-04-05T13:40:11.188Z,32.43
2023-04-05T13:42:39.096Z,32.91
2023-04-05T13:45:28.506Z,31.74
2023-04-05T13:47:57.171Z,32.50
2023-04-05T13:50:25.163Z,32.65
2023-04-05T13:52:54.456Z,31.90
2023-04-05T13:55:22.276Z,31.64
2023-04-05T13:57:50.286Z,32.63
2023-04-05T14:00:18.751Z,32.76
2023-04-05T14:02:46.778Z,32.90
2023-04-05T14:05:15.588Z,32.59
2023-04-05T14:07:43.421Z,31.84
2023-04-05T14:10:12.798Z,32.13
2023-04-05T14:12:40.669Z,32.26
2023-04-05T14:15:09.343Z,32.32
2023-04-05T14:17:37.270Z,31.93
2023-04-05T14:20:06.570Z,31.82
2023-04-05T14:22:34.469Z,32.79
2023-04-05T14:25:04.725Z,32.50
2023-04-05T14:27:35.915Z,32.63
2023-04-05T14:30:03.877Z,31.46
2023-04-05T14:32:33.815Z,32.29
2023-04-05T14:35:01.887Z,33.05
2023-04-05T14:37:29.779Z,33.23
2023-04-05T14:39:57.705Z,33.11
2023-04-05T14:42:37.209Z,33.59
2023-04-05T14:45:07.699Z,33.23
2023-04-05T14:47:35.824Z,33.08
2023-04-05T14:50:03.902Z,33.70
2023-04-05T14:52:31.996Z,32.88
2023-04-05T14:54:59.954Z,33.43
2023-04-05T14:57:28.113Z,33.75
2023-04-05T14:59:56.113Z,33.36
2023-04-05T15:02:26.476Z,33.37
2023-04-05T15:04:54.288Z,33.11
2023-04-05T15:07:22.170Z,33.47
2023-04-05T15:09:50.045Z,33.06
2023-04-05T15:12:17.998Z,33.25
2023-04-05T15:14:46.019Z,33.44
2023-04-05T15:17:14.038Z,32.77
2023-04-05T15:19:43.471Z,33.15
2023-04-05T15:22:11.437Z,33.56
2023-04-05T15:24:41.659Z,33.80
2023-04-05T15:27:09.941Z,33.36
2023-04-05T15:29:37.970Z,33.17
2023-04-05T15:32:05.943Z,32.74
2023-04-05T15:34:33.817Z,32.81
2023-04-05T15:37:03.003Z,32.71
2023-04-05T15:39:30.892Z,32.67
2023-04-05T15:41:59.644Z,32.79
2023-04-05T15:44:27.500Z,32.32
2023-04-05T15:46:55.478Z,32.14
2023-04-05T15:49:23.335Z,32.93
2023-04-05T15:51:51.258Z,32.22
2023-04-05T15:54:21.027Z,32.34
2023-04-05T15:56:49.175Z,31.95
2023-04-05T15:59:17.025Z,31.99
2023-04-05T16:01:45.051Z,32.17
2023-04-05T16:04:13.100Z,32.53
2023-04-05T16:06:41.078Z,32.54
2023-04-05T16:09:08.930Z,32.84
2023-04-05T16:11:38.428Z,32.67
2023-04-05T16:14:06.382Z,32.40
2023-04-05T16:16:42.053Z,32.52
2023-04-05T16:19:22.793Z,32.88
2023-04-05T16:21:51.405Z,32.50
2023-04-05T16:24:19.888Z,31.99
2023-04-05T16:26:49.194Z,32.01
2023-04-05T16:29:17.049Z,32.27
2023-04-05T16:31:47.575Z,31.72
2023-04-05T16:34:15.790Z,32.06
2023-04-05T16:36:43.855Z,32.29
2023-04-05T16:39:16.002Z,32.31
2023-04-05T16:41:44.082Z,32.57
2023-04-05T16:44:13.342Z,32.90
2023-04-05T16:46:41.381Z,32.68
2023-04-05T16:49:09.779Z,32.59
2023-04-05T16:51:38.668Z,33.10
2023-04-05T16:54:06.720Z,33.06
2023-04-05T16:56:37.185Z,33.43
2023-04-05T16:59:07.475Z,33.13
2023-04-05T17:01:38.083Z,33.19
2023-04-05T17:04:06.197Z,33.61
2023-04-05T17:06:34.121Z,33.28
2023-04-05T17:09:02.339Z,33.13
2023-04-05T17:11:30.923Z,33.37
2023-04-05T17:13:59.714Z,33.14
2023-04-05T17:16:27.820Z,33.59
2023-04-05T17:18:57.334Z,33.74
2023-04-05T17:21:25.921Z,34.03
2023-04-05T17:23:54.082Z,34.40
2023-04-05T17:26:23.372Z,34.78
2023-04-05T17:28:51.286Z,34.72
2023-04-05T17:31:19.402Z,34.82
2023-04-05T17:33:48.821Z,34.92
2023-04-05T17:36:18.714Z,34.95
2023-04-05T17:38:46.939Z,35.07
2023-04-05T17:41:14.934Z,35.69
2023-04-05T17:43:42.940Z,35.66
2023-04-05T17:46:13.854Z,35.55
2023-04-05T17:48:42.345Z,35.81
2023-04-05T17:51:10.766Z,35.58
2023-04-05T17:53:40.465Z,36.21
2023-04-05T17:56:08.509Z,36.25
2023-04-05T17:58:36.741Z,35.90
2023-04-05T18:01:05.003Z,35.93
2023-04-05T18:03:33.043Z,36.02
2023-04-05T18:06:00.983Z,35.46
2023-04-05T18:08:29.284Z,35.56
2023-04-05T18:10:59.513Z,35.50
2023-04-05T18:13:28.800Z,35.53
2023-04-05T18:15:57.778Z,35.72
2023-04-05T18:18:28.623Z,36.40
2023-04-05T18:20:57.912Z,36.17
2023-04-05T18:23:25.857Z,36.23
2023-04-05T18:25:54.580Z,36.45
2023-04-05T18:28:24.084Z,36.63
2023-04-05T18:30:53.004Z,36.77
2023-04-05T18:33:22.734Z,36.75
2023-04-05T18:35:51.292Z,37.34
2023-04-05T18:38:19.359Z,37.80
2023-04-05T18:40:47.337Z,37.89
2023-04-05T18:43:15.479Z,38.57
2023-04-05T18:45:45.231Z,38.77
2023-04-05T18:48:13.517Z,39.03
2023-04-05T18:50:41.407Z,39.61
2023-04-05T18:53:09.433Z,39.78
2023-04-05T18:55:38.226Z,39.86
2023-04-05T18:58:06.409Z,40.18
2023-04-05T19:00:35.040Z,40.41
2023-04-05T19:03:04.620Z,40.73
2023-04-05T19:05:33.308Z,41.08
2023-04-05T19:08:01.312Z,40.69
2023-04-05T19:10:29.284Z,41.54
2023-04-05T19:12:57.729Z,41.79
2023-04-05T19:15:25.674Z,42.25
2023-04-05T19:17:53.577Z,42.27
2023-04-05T19:20:22.921Z,42.30
2023-04-05T19:22:51.175Z,42.84
2023-04-05T19:25:19.273Z,43.02
2023-04-05T19:27:47.309Z,43.48
2023-04-05T19:30:15.495Z,43.61
2023-04-05T19:32:43.505Z,44.15
2023-04-05T19:35:11.606Z,44.29
2023-04-05T19:37:40.986Z,43.99
2023-04-05T19:40:10.036Z,43.94
2023-04-05T19:42:38.782Z,43.57
2023-04-05T19:45:09.294Z,43.91
2023-04-05T19:47:49.272Z,43.57
2023-04-05T19:50:42.806Z,43.63
2023-04-05T19:53:39.146Z,43.56
2023-04-05T19:56:13.033Z,43.62
2023-04-05T19:58:41.326Z,43.44
2023-04-05T20:01:09.442Z,43.39
2023-04-05T20:03:38.977Z,43.46
2023-04-05T20:06:29.876Z,43.62
2023-04-05T20:09:04.268Z,43.84
2023-04-05T20:11:32.953Z,43.72
2023-04-05T20:14:02.222Z,43.64
2023-04-05T20:16:33.486Z,43.71
2023-04-05T20:19:03.729Z,43.77
2023-04-05T20:21:34.988Z,43.90
2023-04-05T20:24:08.567Z,44.04
2023-04-05T20:26:36.938Z,44.11
2023-04-05T20:29:08.752Z,44.45
2023-04-05T20:31:39.998Z,45.00
2023-04-05T20:34:11.449Z,45.06
2023-04-05T20:36:44.210Z,45.05
2023-04-05T20:39:13.581Z,45.13
2023-04-05T20:41:41.541Z,45.03
2023-04-05T20:44:09.453Z,45.21
2023-04-05T20:46:37.605Z,45.57
2023-04-05T20:49:05.611Z,45.69
2023-04-05T20:51:33.710Z,45.63
2023-04-05T20:54:01.528Z,46.00
2023-04-05T20:56:30.732Z,46.38
2023-04-05T20:58:58.537Z,46.89
2023-04-05T21:01:27.154Z,47.37
2023-04-05T21:03:55.052Z,47.79
2023-04-05T21:06:22.957Z,48.16
2023-04-05T21:08:50.750Z,47.75
2023-04-05T21:11:20.057Z,47.98
2023-04-05T21:13:49.246Z,48.22
2023-04-05T21:16:17.333Z,48.59
2023-04-05T21:18:45.244Z,49.16
2023-04-05T21:21:13.056Z,49.02
2023-04-05T21:23:43.930Z,49.08
2023-04-05T21:26:11.739Z,49.32
2023-04-05T21:28:39.568Z,49.92
2023-04-05T21:31:08.789Z,49.84
2023-04-05T21:33:36.769Z,50.27
2023-04-05T21:36:04.980Z,50.71
2023-04-05T21:38:32.809Z,50.96
2023-04-05T21:41:00.627Z,50.96
2023-04-05T21:43:28.469Z,51.16
2023-04-05T21:45:56.279Z,51.00
2023-04-05T21:48:27.809Z,51.50
2023-04-05T21:50:55.934Z,51.95
2023-04-05T21:53:25.305Z,52.00
2023-04-05T21:55:53.259Z,52.16
2023-04-05T21:58:21.146Z,52.50
2023-04-05T22:00:49.041Z,52.77
2023-04-05T22:03:16.956Z,53.04
2023-04-05T22:05:46.374Z,53.45
2023-04-05T22:08:14.241Z,53.83
2023-04-05T22:10:42.284Z,53.75
2023-04-05T22:13:10.205Z,53.67
2023-04-05T22:15:38.198Z,54.19
2023-04-05T22:18:06.670Z,54.23
2023-04-05T22:20:34.696Z,54.40
2023-04-05T22:23:03.917Z,54.88
2023-04-05T22:25:32.154Z,54.81
2023-04-05T22:28:00.722Z,54.92
2023-04-05T22:30:28.930Z,55.25
2023-04-05T22:32:57.048Z,55.32
2023-04-05T22:35:25.112Z,55.53
2023-04-05T22:37:52.926Z,55.42
2023-04-05T22:40:26.965Z,55.70
2023-04-05T22:42:55.029Z,55.77
2023-04-05T22:45:23.615Z,56.14
2023-04-05T22:47:51.559Z,56.05
2023-04-05T22:50:19.490Z,56.38
2023-04-05T22:52:47.326Z,56.74
2023-04-05T22:55:15.576Z,56.92
2023-04-05T22:57:44.918Z,57.04
2023-04-05T23:00:15.035Z,57.08
2023-04-05T23:02:43.447Z,57.53
2023-04-05T23:05:13.121Z,57.67
2023-04-05T23:07:41.073Z,57.65
2023-04-05T23:10:09.583Z,57.76
2023-04-05T23:12:37.442Z,58.21
2023-04-05T23:15:07.877Z,58.21
2023-04-05T23:17:35.769Z,57.90
2023-04-05T23:20:05.799Z,58.63
2023-04-05T23:22:34.814Z,57.96
2023-04-05T23:25:03.043Z,58.43
2023-04-05T23:27:31.104Z,58.61
2023-04-05T23:29:59.410Z,58.34
2023-04-05T23:32:28.611Z,58.55
2023-04-05T23:34:56.481Z,59.00
2023-04-05T23:37:24.337Z,59.48
2023-04-05T23:39:52.150Z,59.52
2023-04-05T23:42:20.068Z,59.64
2023-04-05T23:44:47.916Z,59.45
2023-04-05T23:47:15.750Z,59.63
2023-04-05T23:49:45.021Z,58.97
2023-04-05T23:52:12.859Z,59.67
2023-04-05T23:54:40.973Z,59.39
2023-04-05T23:57:09.010Z,58.83
2023-04-05T23:59:37.140Z,59.53
